Time;durP1;ratioP1;P1;durP2;ratioP2;P2;SDS_P1;SDS_P2;PMS_P1;PMS_P2;Temp;Humidity;BMP_temperature;BMP_pressure;BME280_temperature;BME280_humidity;BME280_pressure;Samples;Min_cycle;Max_cycle;Signal;HPM_P1;HPM_P2
2023/04/24 00:01:14;;;;;;;1.02;0.80;;;;;;;;;;4858541;29;20041;-87
2023/04/24 00:03:42;;;;;;;1.35;0.90;;;;;;;;;;4859648;29;20050;-86
2023/04/24 00:06:09;;;;;;;2.65;1.15;;;;;;;;;;4857978;29;20113;-86
2023/04/24 00:08:36;;;;;;;0.77;0.77;;;;;;;;;;4859168;29;20057;-86
2023/04/24 00:11:04;;;;;;;1.20;0.85;;;;;;;;;;4865777;29;20045;-86
2023/04/24 00:13:31;;;;;;;1.30;1.10;;;;;;;;;;4864073;29;20056;-84
2023/04/24 00:15:59;;;;;;;1.20;0.80;;;;;;;;;;4861931;29;20045;-86
2023/04/24 00:18:26;;;;;;;0.75;0.75;;;;;;;;;;4855670;29;20053;-84
2023/04/24 00:20:54;;;;;;;1.95;1.10;;;;;;;;;;4856698;29;20055;-87
2023/04/24 00:23:21;;;;;;;2.30;0.90;;;;;;;;;;4859319;29;20056;-86
2023/04/24 00:25:48;;;;;;;1.90;0.90;;;;;;;;;;4854705;29;20060;-84
2023/04/24 00:28:15;;;;;;;1.23;0.90;;;;;;;;;;4867980;29;20060;-87
2023/04/24 00:30:43;;;;;;;1.23;1.10;;;;;;;;;;4851071;29;20652;-86
2023/04/24 00:33:10;;;;;;;1.23;0.98;;;;;;;;;;4858054;29;20061;-86
2023/04/24 00:35:38;;;;;;;0.90;0.90;;;;;;;;;;4855051;29;20069;-84
2023/04/24 00:38:05;;;;;;;0.88;0.88;;;;;;;;;;4853429;29;20053;-85
2023/04/24 00:40:32;;;;;;;1.67;1.00;;;;;;;;;;4857118;29;20053;-85
2023/04/24 00:43:00;;;;;;;1.17;0.90;;;;;;;;;;4874880;29;20325;-85
2023/04/24 00:45:27;;;;;;;1.02;0.93;;;;;;;;;;4875483;29;20182;-87
2023/04/24 00:47:54;;;;;;;0.95;0.80;;;;;;;;;;4852417;29;20416;-85
2023/04/24 00:50:22;;;;;;;1.50;0.90;;;;;;;;;;4857550;29;20072;-84
2023/04/24 00:52:50;;;;;;;0.63;0.60;;;;;;;;;;4858178;29;20053;-86
2023/04/24 00:55:18;;;;;;;0.98;0.90;;;;;;;;;;4865690;29;20085;-86
2023/04/24 00:57:45;;;;;;;1.00;1.00;;;;;;;;;;4860781;29;20571;-87
2023/04/24 01:00:14;;;;;;;1.35;1.00;;;;;;;;;;4847873;29;20052;-87
2023/04/24 01:02:44;;;;;;;1.00;0.70;;;;;;;;;;4861531;29;20073;-85
2023/04/24 01:05:13;;;;;;;1.75;0.90;;;;;;;;;;4838743;29;20054;-85
2023/04/24 01:07:43;;;;;;;2.22;1.02;;;;;;;;;;4848641;29;20045;-87
2023/04/24 01:10:11;;;;;;;1.88;1.20;;;;;;;;;;4853198;29;20109;-87
2023/04/24 01:12:39;;;;;;;1.02;1.00;;;;;;;;;;4874927;29;20055;-85
2023/04/24 01:15:06;;;;;;;2.25;1.30;;;;;;;;;;4863650;29;20053;-85
2023/04/24 01:17:35;;;;;;;3.08;1.10;;;;;;;;;;4849415;29;20056;-84
2023/04/24 01:20:05;;;;;;;1.95;1.20;;;;;;;;;;4856398;29;20769;-84
2023/04/24 01:22:34;;;;;;;1.45;1.00;;;;;;;;;;4859049;29;20606;-84
2023/04/24 01:25:02;;;;;;;1.25;1.15;;;;;;;;;;4859212;29;20469;-85
2023/04/24 01:27:30;;;;;;;2.88;1.33;;;;;;;;;;4857337;29;20041;-85
2023/04/24 01:29:57;;;;;;;0.90;0.90;;;;;;;;;;4855534;29;20045;-85
2023/04/24 01:32:25;;;;;;;2.13;1.15;;;;;;;;;;4856187;29;20068;-84
2023/04/24 01:34:53;;;;;;;1.20;1.10;;;;;;;;;;4849580;29;20061;-84
2023/04/24 01:37:20;;;;;;;1.45;1.40;;;;;;;;;;4865886;29;20523;-84
2023/04/24 01:39:48;;;;;;;1.40;1.00;;;;;;;;;;4855080;29;20052;-85
2023/04/24 01:42:16;;;;;;;1.63;1.30;;;;;;;;;;4856043;29;20051;-84
2023/04/24 01:44:46;;;;;;;2.03;1.35;;;;;;;;;;4857468;29;20066;-85
2023/04/24 01:47:14;;;;;;;2.08;1.20;;;;;;;;;;4856505;29;20053;-84
2023/04/24 01:49:41;;;;;;;1.50;1.40;;;;;;;;;;4854318;29;20064;-85
2023/04/24 01:52:09;;;;;;;1.02;1.02;;;;;;;;;;4853207;29;20481;-86
2023/04/24 01:54:36;;;;;;;1.50;1.40;;;;;;;;;;4851739;29;20060;-86
2023/04/24 01:57:04;;;;;;;2.58;1.05;;;;;;;;;;4862493;29;20049;-85
2023/04/24 01:59:33;;;;;;;2.45;1.30;;;;;;;;;;4848720;29;20059;-85
2023/04/24 02:02:01;;;;;;;2.33;1.58;;;;;;;;;;4865281;29;20045;-84
2023/04/24 02:04:28;;;;;;;1.60;1.40;;;;;;;;;;4857154;29;20049;-85
2023/04/24 02:06:55;;;;;;;1.30;1.20;;;;;;;;;;4863663;29;20049;-85
2023/04/24 02:09:24;;;;;;;2.80;1.30;;;;;;;;;;4853859;29;20054;-87
2023/04/24 02:11:52;;;;;;;5.15;1.40;;;;;;;;;;4879902;29;20056;-85
2023/04/24 02:14:19;;;;;;;1.50;1.40;;;;;;;;;;4873778;24;20522;-82
2023/04/24 02:16:46;;;;;;;1.58;1.50;;;;;;;;;;4875521;29;20060;-84
2023/04/24 02:19:14;;;;;;;1.02;1.02;;;;;;;;;;4876927;29;20053;-82
2023/04/24 02:21:41;;;;;;;2.67;1.48;;;;;;;;;;4879103;29;20040;-82
2023/04/24 02:24:09;;;;;;;2.15;1.33;;;;;;;;;;4882131;29;20261;-82
2023/04/24 02:26:36;;;;;;;1.50;1.40;;;;;;;;;;4881560;29;20052;-81
2023/04/24 02:29:03;;;;;;;1.40;1.02;;;;;;;;;;4866317;29;20151;-82
2023/04/24 02:31:30;;;;;;;1.90;1.40;;;;;;;;;;4855732;29;20057;-83
2023/04/24 02:33:58;;;;;;;1.65;1.55;;;;;;;;;;4851325;29;20124;-82
2023/04/24 02:36:25;;;;;;;2.20;1.95;;;;;;;;;;4850459;29;20045;-82
2023/04/24 02:38:53;;;;;;;1.42;1.27;;;;;;;;;;4847150;29;20136;-82
2023/04/24 02:41:20;;;;;;;1.92;1.75;;;;;;;;;;4844452;29;20045;-83
2023/04/24 02:43:47;;;;;;;1.48;1.48;;;;;;;;;;4860569;29;20049;-83
2023/04/24 02:46:15;;;;;;;1.95;1.70;;;;;;;;;;4861480;29;20528;-83
2023/04/24 02:48:42;;;;;;;2.75;1.63;;;;;;;;;;4859748;29;20438;-84
2023/04/24 02:51:09;;;;;;;1.75;1.55;;;;;;;;;;4857622;29;20053;-84
2023/04/24 02:53:37;;;;;;;1.55;1.15;;;;;;;;;;4869670;29;20065;-83
2023/04/24 02:56:04;;;;;;;1.45;1.35;;;;;;;;;;4837935;29;20056;-85
2023/04/24 02:58:31;;;;;;;1.45;1.35;;;;;;;;;;4845516;29;20137;-82
2023/04/24 03:01:00;;;;;;;4.65;1.30;;;;;;;;;;4854918;29;20051;-82
2023/04/24 03:03:27;;;;;;;2.95;1.80;;;;;;;;;;4863072;29;20052;-85
2023/04/24 03:05:55;;;;;;;2.28;1.95;;;;;;;;;;4858847;29;20508;-83
2023/04/24 03:08:22;;;;;;;2.35;1.98;;;;;;;;;;4857033;29;20049;-84
2023/04/24 03:10:50;;;;;;;2.20;1.48;;;;;;;;;;4863031;29;20068;-84
2023/04/24 03:13:17;;;;;;;2.33;1.90;;;;;;;;;;4856236;29;20049;-83
2023/04/24 03:15:46;;;;;;;1.83;1.73;;;;;;;;;;4865107;29;20063;-83
2023/04/24 03:18:13;;;;;;;1.58;1.48;;;;;;;;;;4862583;29;20050;-83
2023/04/24 03:20:41;;;;;;;2.83;2.63;;;;;;;;;;4855015;29;20057;-82
2023/04/24 03:23:08;;;;;;;4.53;1.70;;;;;;;;;;4857895;29;20093;-82
2023/04/24 03:25:36;;;;;;;3.78;1.63;;;;;;;;;;4843979;29;20067;-81
2023/04/24 03:28:04;;;;;;;1.90;1.80;;;;;;;;;;4855702;29;20049;-83
2023/04/24 03:30:44;;;;;;;4.25;2.10;;;;;;;;;;4851774;29;20408;-84
2023/04/24 03:33:12;;;;;;;1.48;1.38;;;;;;;;;;4851269;29;20058;-83
2023/04/24 03:35:47;;;;;;;1.42;1.38;;;;;;;;;;4861838;29;20063;-84
2023/04/24 03:38:14;;;;;;;2.50;2.28;;;;;;;;;;4859751;29;20136;-84
2023/04/24 03:40:42;;;;;;;2.40;2.05;;;;;;;;;;4857366;29;20128;-82
2023/04/24 03:43:34;;;;;;;2.40;2.00;;;;;;;;;;4845078;29;20053;-82
2023/04/24 03:46:02;;;;;;;3.08;2.10;;;;;;;;;;4861656;29;20049;-83
2023/04/24 03:48:32;;;;;;;2.20;2.03;;;;;;;;;;4864563;29;20057;-83
2023/04/24 03:51:01;;;;;;;2.67;1.70;;;;;;;;;;4868408;29;20041;-83
2023/04/24 03:53:30;;;;;;;4.05;2.50;;;;;;;;;;4866907;29;20026;-82
2023/04/24 03:55:58;;;;;;;2.78;1.83;;;;;;;;;;4886363;29;20045;-83
2023/04/24 03:58:26;;;;;;;2.15;1.95;;;;;;;;;;4889430;29;20068;-82
2023/04/24 04:00:58;;;;;;;2.65;1.80;;;;;;;;;;4882509;29;20105;-83
2023/04/24 04:03:49;;;;;;;3.42;2.30;;;;;;;;;;4890043;29;20045;-83
2023/04/24 04:06:21;;;;;;;2.08;1.98;;;;;;;;;;4854934;29;20109;-82
2023/04/24 04:08:49;;;;;;;1.73;1.63;;;;;;;;;;4851387;29;20416;-83
2023/04/24 04:11:16;;;;;;;3.20;1.77;;;;;;;;;;4850288;29;20058;-82
2023/04/24 04:13:47;;;;;;;4.00;2.60;;;;;;;;;;4846807;29;20425;-82
2023/04/24 04:16:17;;;;;;;1.75;1.30;;;;;;;;;;4851329;29;20061;-84
2023/04/24 04:18:46;;;;;;;2.47;1.52;;;;;;;;;;4860886;29;20444;-83
2023/04/24 04:21:15;;;;;;;2.50;2.08;;;;;;;;;;4857062;29;20852;-81
2023/04/24 04:23:42;;;;;;;2.17;1.77;;;;;;;;;;4852869;29;20049;-83
2023/04/24 04:26:25;;;;;;;2.08;1.95;;;;;;;;;;4852344;29;20045;-83
2023/04/24 04:29:03;;;;;;;3.05;2.05;;;;;;;;;;4850909;29;20874;-82
2023/04/24 04:31:32;;;;;;;2.40;2.28;;;;;;;;;;4852692;29;20077;-83
2023/04/24 04:34:04;;;;;;;2.10;1.90;;;;;;;;;;4851091;29;20148;-82
2023/04/24 04:36:36;;;;;;;3.65;3.35;;;;;;;;;;4853590;29;20077;-83
2023/04/24 04:39:18;;;;;;;1.60;1.50;;;;;;;;;;4850037;29;20102;-83
2023/04/24 04:41:53;;;;;;;2.38;2.00;;;;;;;;;;4845278;29;20050;-83
2023/04/24 04:44:24;;;;;;;2.72;2.25;;;;;;;;;;4862146;29;20046;-82
2023/04/24 04:46:56;;;;;;;4.75;4.20;;;;;;;;;;4852933;29;20125;-82
2023/04/24 04:49:30;;;;;;;2.55;1.70;;;;;;;;;;4848088;29;20045;-82
2023/04/24 04:52:24;;;;;;;2.85;1.60;;;;;;;;;;4848852;29;20156;-82
2023/04/24 04:54:57;;;;;;;8.02;2.00;;;;;;;;;;4835571;29;20059;-82
2023/04/24 04:57:32;;;;;;;2.33;2.10;;;;;;;;;;4847508;29;20053;-82
2023/04/24 05:00:00;;;;;;;2.63;2.40;;;;;;;;;;4849470;29;20550;-81
2023/04/24 05:02:42;;;;;;;2.20;2.00;;;;;;;;;;4853084;29;20053;-82
2023/04/24 05:05:10;;;;;;;2.33;2.13;;;;;;;;;;4851506;29;20058;-81
2023/04/24 05:07:38;;;;;;;2.75;2.00;;;;;;;;;;4841591;29;20553;-81
2023/04/24 05:10:05;;;;;;;1.67;1.58;;;;;;;;;;4852097;29;20057;-80
2023/04/24 05:12:32;;;;;;;3.88;2.10;;;;;;;;;;4847759;29;20090;-81
2023/04/24 05:15:02;;;;;;;6.13;2.33;;;;;;;;;;4848101;29;20060;-81
2023/04/24 05:17:29;;;;;;;1.85;1.67;;;;;;;;;;4843892;29;20082;-83
2023/04/24 05:19:58;;;;;;;1.90;1.70;;;;;;;;;;4851008;29;20113;-81
2023/04/24 05:22:26;;;;;;;4.00;1.52;;;;;;;;;;4852568;29;20136;-82
2023/04/24 05:24:53;;;;;;;2.15;1.70;;;;;;;;;;4856025;29;20049;-82
2023/04/24 05:27:59;;;;;;;1.55;1.45;;;;;;;;;;4853776;29;20408;-82
2023/04/24 05:30:26;;;;;;;4.50;1.70;;;;;;;;;;4858443;29;20168;-82
2023/04/24 05:32:54;;;;;;;3.50;1.70;;;;;;;;;;4859673;29;20490;-81
2023/04/24 05:35:21;;;;;;;13.63;11.40;;;;;;;;;;4853227;29;20092;-82
2023/04/24 05:37:49;;;;;;;1.30;1.17;;;;;;;;;;4857049;29;20045;-79
2023/04/24 05:40:17;;;;;;;1.30;1.20;;;;;;;;;;4855136;29;20047;-83
2023/04/24 05:42:45;;;;;;;3.15;1.38;;;;;;;;;;4859867;29;20050;-81
2023/04/24 05:45:16;;;;;;;1.80;1.17;;;;;;;;;;4858556;29;20049;-81
2023/04/24 05:47:44;;;;;;;1.95;1.20;;;;;;;;;;4855714;29;20051;-82
2023/04/24 05:50:12;;;;;;;2.30;1.27;;;;;;;;;;4855984;29;20045;-82
2023/04/24 05:52:40;;;;;;;2.63;1.30;;;;;;;;;;4889533;29;20057;-80
2023/04/24 05:55:20;;;;;;;1.55;1.33;;;;;;;;;;4870448;29;20057;-83
2023/04/24 05:57:48;;;;;;;2.40;1.45;;;;;;;;;;4872877;29;20102;-80
2023/04/24 06:00:17;;;;;;;1.17;1.08;;;;;;;;;;4872185;29;20041;-80
2023/04/24 06:02:52;;;;;;;3.88;1.40;;;;;;;;;;4857673;29;20050;-80
2023/04/24 06:05:21;;;;;;;1.77;1.30;;;;;;;;;;4872363;29;20034;-81
2023/04/24 06:07:51;;;;;;;1.40;1.20;;;;;;;;;;4880521;29;20068;-82
2023/04/24 06:10:21;;;;;;;3.30;1.38;;;;;;;;;;4861322;29;20053;-82
2023/04/24 06:12:49;;;;;;;2.10;1.10;;;;;;;;;;4861313;29;20050;-82
2023/04/24 06:15:17;;;;;;;0.80;0.80;;;;;;;;;;4864130;29;20057;-82
2023/04/24 06:17:56;;;;;;;2.58;0.75;;;;;;;;;;4861283;29;20600;-83
2023/04/24 06:20:24;;;;;;;1.48;1.20;;;;;;;;;;4858967;29;20668;-82
2023/04/24 06:22:51;;;;;;;1.88;0.95;;;;;;;;;;4866693;29;20057;-82
2023/04/24 06:25:19;;;;;;;1.58;1.08;;;;;;;;;;4855486;29;20053;-81
2023/04/24 06:27:46;;;;;;;2.75;1.00;;;;;;;;;;4856941;29;20524;-81
2023/04/24 06:30:14;;;;;;;27.77;10.65;;;;;;;;;;4853688;29;20050;-80
2023/04/24 06:32:41;;;;;;;2.47;1.00;;;;;;;;;;4854886;29;20061;-81
2023/04/24 06:35:09;;;;;;;5.13;1.70;;;;;;;;;;4867592;29;20057;-81
2023/04/24 06:37:38;;;;;;;1.80;1.15;;;;;;;;;;4863415;29;20109;-81
2023/04/24 06:40:05;;;;;;;4.72;1.60;;;;;;;;;;4863662;29;20124;-81
2023/04/24 06:42:35;;;;;;;2.53;1.30;;;;;;;;;;4857593;29;20069;-82
2023/04/24 06:45:03;;;;;;;4.38;1.40;;;;;;;;;;4858537;29;20053;-82
2023/04/24 06:47:31;;;;;;;4.32;1.40;;;;;;;;;;4857023;29;20780;-82
2023/04/24 06:49:59;;;;;;;2.33;1.27;;;;;;;;;;4856583;29;20053;-81
2023/04/24 06:52:26;;;;;;;2.72;1.48;;;;;;;;;;4859219;29;20045;-82
2023/04/24 06:55:00;;;;;;;3.35;1.20;;;;;;;;;;4866305;29;20496;-82
2023/04/24 06:57:27;;;;;;;2.50;1.50;;;;;;;;;;4859030;29;20049;-81
2023/04/24 06:59:55;;;;;;;4.13;1.90;;;;;;;;;;4854430;29;20050;-80
2023/04/24 07:02:22;;;;;;;31.88;9.10;;;;;;;;;;4853454;29;20504;-82
2023/04/24 07:04:50;;;;;;;1.83;1.73;;;;;;;;;;4858138;29;20160;-81
2023/04/24 07:07:17;;;;;;;5.55;3.22;;;;;;;;;;4855507;29;20057;-81
2023/04/24 07:09:45;;;;;;;3.80;2.42;;;;;;;;;;4859306;29;20073;-82
2023/04/24 07:12:13;;;;;;;2.10;1.58;;;;;;;;;;4857268;29;20049;-81
2023/04/24 07:14:40;;;;;;;3.40;2.15;;;;;;;;;;4856706;29;20423;-81
2023/04/24 07:17:08;;;;;;;4.00;1.27;;;;;;;;;;4859483;29;20053;-80
2023/04/24 07:19:35;;;;;;;2.85;1.20;;;;;;;;;;4859411;29;20106;-82
2023/04/24 07:22:03;;;;;;;1.13;1.02;;;;;;;;;;4859310;29;20477;-82
2023/04/24 07:24:32;;;;;;;2.17;1.48;;;;;;;;;;4855865;29;20046;-81
2023/04/24 07:27:00;;;;;;;1.75;1.48;;;;;;;;;;4859134;29;20052;-82
2023/04/24 07:29:28;;;;;;;1.92;1.50;;;;;;;;;;4856534;29;20057;-81
2023/04/24 07:31:56;;;;;;;1.13;1.02;;;;;;;;;;4855136;29;20053;-83
2023/04/24 07:34:24;;;;;;;1.60;1.08;;;;;;;;;;4853306;29;20434;-81
2023/04/24 07:36:51;;;;;;;4.50;1.20;;;;;;;;;;4856269;29;20053;-82
2023/04/24 07:39:19;;;;;;;1.85;1.30;;;;;;;;;;4860064;29;20084;-80
2023/04/24 07:41:46;;;;;;;2.47;2.28;;;;;;;;;;4853287;29;20526;-81
2023/04/24 07:44:13;;;;;;;4.28;1.98;;;;;;;;;;4854139;29;20086;-82
2023/04/24 07:46:41;;;;;;;3.25;1.48;;;;;;;;;;4858926;29;20053;-82
2023/04/24 07:49:08;;;;;;;1.83;1.40;;;;;;;;;;4857672;29;20378;-81
2023/04/24 07:51:41;;;;;;;6.80;1.67;;;;;;;;;;4860237;29;20622;-82
2023/04/24 07:54:09;;;;;;;3.38;1.70;;;;;;;;;;4860225;29;20054;-82
2023/04/24 07:56:38;;;;;;;2.33;1.50;;;;;;;;;;4870562;29;20046;-84
2023/04/24 07:59:06;;;;;;;3.33;1.23;;;;;;;;;;4864050;29;20049;-82
2023/04/24 08:01:34;;;;;;;3.05;1.58;;;;;;;;;;4867010;29;20103;-81
2023/04/24 08:04:01;;;;;;;11.18;9.45;;;;;;;;;;4876701;29;20053;-83
2023/04/24 08:06:30;;;;;;;2.97;1.20;;;;;;;;;;4862441;29;20691;-83
2023/04/24 08:08:58;;;;;;;1.77;1.17;;;;;;;;;;4860068;29;21011;-82
2023/04/24 08:11:26;;;;;;;1.92;1.45;;;;;;;;;;4859867;29;20118;-82
2023/04/24 08:13:54;;;;;;;1.38;1.27;;;;;;;;;;4864893;29;20060;-82
2023/04/24 08:16:23;;;;;;;2.85;1.50;;;;;;;;;;4862488;29;20058;-81
2023/04/24 08:18:51;;;;;;;1.20;1.20;;;;;;;;;;4870864;29;20055;-82
2023/04/24 08:21:20;;;;;;;2.83;1.20;;;;;;;;;;4862622;29;20482;-81
2023/04/24 08:23:47;;;;;;;2.00;1.20;;;;;;;;;;4856868;29;20049;-82
2023/04/24 08:26:15;;;;;;;0.85;0.85;;;;;;;;;;4858341;29;20050;-81
2023/04/24 08:28:42;;;;;;;1.60;1.50;;;;;;;;;;4852863;29;20085;-82
2023/04/24 08:31:10;;;;;;;2.28;1.77;;;;;;;;;;4853369;29;20058;-82
2023/04/24 08:33:37;;;;;;;23.35;12.15;;;;;;;;;;4853793;29;20085;-82
2023/04/24 08:36:05;;;;;;;3.45;1.60;;;;;;;;;;4851575;29;20663;-82
2023/04/24 08:38:33;;;;;;;1.30;1.10;;;;;;;;;;4848784;29;20227;-82
2023/04/24 08:41:04;;;;;;;4.85;2.42;;;;;;;;;;4853343;29;20049;-83
2023/04/24 08:43:34;;;;;;;2.08;1.90;;;;;;;;;;4862415;29;20106;-82
2023/04/24 08:46:01;;;;;;;17.17;7.03;;;;;;;;;;4850228;29;20163;-83
2023/04/24 08:48:34;;;;;;;1.30;1.20;;;;;;;;;;4854046;29;20045;-82
2023/04/24 08:51:02;;;;;;;1.85;1.20;;;;;;;;;;4851163;29;20045;-82
2023/04/24 08:53:30;;;;;;;1.75;1.27;;;;;;;;;;4850834;29;20065;-82
2023/04/24 08:55:57;;;;;;;0.98;0.98;;;;;;;;;;4852394;29;20052;-83
2023/04/24 08:58:26;;;;;;;0.98;0.90;;;;;;;;;;4848750;29;20073;-83
2023/04/24 09:00:57;;;;;;;17.05;9.43;;;;;;;;;;4848900;29;20046;-83
2023/04/24 09:03:24;;;;;;;2.70;0.98;;;;;;;;;;4849998;29;20050;-83
2023/04/24 09:05:53;;;;;;;2.72;1.00;;;;;;;;;;4854684;29;20054;-84
2023/04/24 09:08:20;;;;;;;1.27;1.05;;;;;;;;;;4857016;29;20045;-83
2023/04/24 09:10:48;;;;;;;1.05;0.82;;;;;;;;;;4858757;29;20124;-83
2023/04/24 09:13:19;;;;;;;0.90;0.90;;;;;;;;;;4853829;29;20166;-83
2023/04/24 09:15:46;;;;;;;0.70;0.70;;;;;;;;;;4853618;29;20507;-83
2023/04/24 09:18:13;;;;;;;1.10;1.10;;;;;;;;;;4851118;29;20137;-83
2023/04/24 09:21:00;;;;;;;1.80;1.35;;;;;;;;;;4851180;29;20049;-85
2023/04/24 09:23:28;;;;;;;2.10;1.75;;;;;;;;;;4862751;29;20057;-83
2023/04/24 09:25:56;;;;;;;2.30;2.10;;;;;;;;;;4863769;29;20088;-83
2023/04/24 09:28:29;;;;;;;1.50;1.20;;;;;;;;;;4858971;29;20073;-85
2023/04/24 09:31:17;;;;;;;1.13;1.13;;;;;;;;;;4858658;29;20045;-84
2023/04/24 09:33:55;;;;;;;2.28;1.40;;;;;;;;;;4865899;29;20067;-83
2023/04/24 09:36:29;;;;;;;1.20;0.90;;;;;;;;;;4861335;29;20045;-84
2023/04/24 09:39:00;;;;;;;30.67;6.43;;;;;;;;;;4865122;29;20330;-83
2023/04/24 09:41:34;;;;;;;1.17;1.10;;;;;;;;;;4858227;29;20488;-83
2023/04/24 09:44:12;;;;;;;1.90;1.10;;;;;;;;;;4858496;29;20055;-83
2023/04/24 09:46:39;;;;;;;1.90;1.27;;;;;;;;;;4859729;29;20124;-83
2023/04/24 09:49:10;;;;;;;0.90;0.90;;;;;;;;;;4874075;29;20052;-83
2023/04/24 09:51:38;;;;;;;70.80;23.25;;;;;;;;;;4881301;29;20037;-83
2023/04/24 09:54:13;;;;;;;10.00;1.90;;;;;;;;;;4886822;29;20140;-83
2023/04/24 09:56:44;;;;;;;2.35;1.02;;;;;;;;;;4880600;29;20050;-83
2023/04/24 09:59:11;;;;;;;0.90;0.90;;;;;;;;;;4889452;29;20045;-83
2023/04/24 10:01:44;;;;;;;1.83;1.00;;;;;;;;;;4887566;29;20082;-82
2023/04/24 10:04:22;;;;;;;2.05;1.35;;;;;;;;;;4872940;29;20053;-83
2023/04/24 10:06:50;;;;;;;1.92;1.10;;;;;;;;;;4884058;29;20034;-84
2023/04/24 10:09:18;;;;;;;1.20;1.10;;;;;;;;;;4886801;29;20061;-85
2023/04/24 10:11:47;;;;;;;3.10;1.13;;;;;;;;;;4874638;29;20113;-84
2023/04/24 10:14:16;;;;;;;1.17;0.90;;;;;;;;;;4858384;29;20049;-85
2023/04/24 10:16:44;;;;;;;8.98;6.07;;;;;;;;;;4863860;29;20057;-85
2023/04/24 10:19:12;;;;;;;28.23;1.98;;;;;;;;;;4869492;29;20503;-82
2023/04/24 10:21:46;;;;;;;28.05;1.88;;;;;;;;;;4865418;29;20120;-86
2023/04/24 10:24:18;;;;;;;66.90;24.52;;;;;;;;;;4852306;29;20114;-86
2023/04/24 10:26:47;;;;;;;0.95;0.75;;;;;;;;;;4847067;29;20049;-86
2023/04/24 10:29:16;;;;;;;233.05;113.97;;;;;;;;;;4845032;29;20548;-85
2023/04/24 10:31:45;;;;;;;1.13;1.08;;;;;;;;;;4860378;29;20092;-85
2023/04/24 10:34:15;;;;;;;4.68;1.17;;;;;;;;;;4845578;29;20410;-86
2023/04/24 10:36:45;;;;;;;6.70;2.28;;;;;;;;;;4847079;29;20050;-84
2023/04/24 10:39:14;;;;;;;6.03;2.10;;;;;;;;;;4846111;29;20054;-86
2023/04/24 10:41:42;;;;;;;5.28;1.50;;;;;;;;;;4848929;29;20065;-84
2023/04/24 10:44:13;;;;;;;7.22;2.28;;;;;;;;;;4848453;29;20106;-85
2023/04/24 10:46:44;;;;;;;2.10;1.48;;;;;;;;;;4852321;29;20092;-85
2023/04/24 10:49:13;;;;;;;3.50;1.67;;;;;;;;;;4845452;29;20595;-83
2023/04/24 10:51:50;;;;;;;10.35;6.28;;;;;;;;;;4846951;29;20049;-84
2023/04/24 10:54:23;;;;;;;5.88;1.70;;;;;;;;;;4847394;29;20052;-83
2023/04/24 10:56:51;;;;;;;5.10;1.58;;;;;;;;;;4853325;29;20057;-83
2023/04/24 10:59:28;;;;;;;3.08;1.38;;;;;;;;;;4851598;29;20045;-84
2023/04/24 11:01:56;;;;;;;2.70;1.10;;;;;;;;;;4851343;29;20686;-82
2023/04/24 11:04:30;;;;;;;3.28;1.83;;;;;;;;;;4856053;29;20057;-82
2023/04/24 11:06:58;;;;;;;0.68;0.68;;;;;;;;;;4860914;29;20053;-85
2023/04/24 11:09:30;;;;;;;3.17;1.30;;;;;;;;;;4858777;29;20057;-84
2023/04/24 11:11:57;;;;;;;;;;;;;;;;;;4857537;29;20057;-84
2023/04/24 11:14:25;;;;;;;1.55;0.80;;;;;;;;;;4856873;29;19924;-83
2023/04/24 11:16:52;;;;;;;4.82;0.80;;;;;;;;;;4859297;29;20405;-84
2023/04/24 11:19:28;;;;;;;4.15;0.98;;;;;;;;;;4855651;29;20057;-85
2023/04/24 11:21:56;;;;;;;3.80;2.65;;;;;;;;;;4856163;29;20049;-83
2023/04/24 11:24:26;;;;;;;2.25;1.70;;;;;;;;;;4858850;29;20266;-84
2023/04/24 11:27:13;;;;;;;3.83;1.75;;;;;;;;;;4858034;29;20081;-83
2023/04/24 11:29:41;;;;;;;1.92;1.70;;;;;;;;;;4856749;29;20542;-84
2023/04/24 11:32:27;;;;;;;1.58;1.33;;;;;;;;;;4859332;29;20097;-84
2023/04/24 11:34:56;;;;;;;3.25;1.50;;;;;;;;;;4855764;29;20065;-84
2023/04/24 11:37:25;;;;;;;6.05;1.50;;;;;;;;;;4856298;29;20059;-83
2023/04/24 11:39:53;;;;;;;2.80;1.73;;;;;;;;;;4858981;29;20045;-84
2023/04/24 11:42:20;;;;;;;1.35;1.30;;;;;;;;;;4856796;29;20148;-84
2023/04/24 11:44:48;;;;;;;1.45;1.38;;;;;;;;;;4867810;29;20075;-86
2023/04/24 11:47:15;;;;;;;1.60;1.50;;;;;;;;;;4868018;29;20046;-84
2023/04/24 11:49:43;;;;;;;1.70;1.60;;;;;;;;;;4864043;29;20053;-84
2023/04/24 11:52:10;;;;;;;2.70;1.90;;;;;;;;;;4854864;29;20057;-84
2023/04/24 11:54:38;;;;;;;2.72;1.60;;;;;;;;;;4871095;29;20072;-85
2023/04/24 11:57:06;;;;;;;3.20;2.90;;;;;;;;;;4859155;29;20053;-85
2023/04/24 11:59:37;;;;;;;2.00;1.90;;;;;;;;;;4858004;29;20049;-83
2023/04/24 12:02:05;;;;;;;2.75;2.28;;;;;;;;;;4858214;29;20048;-85
2023/04/24 12:04:40;;;;;;;3.10;2.55;;;;;;;;;;4857618;29;20534;-85
2023/04/24 12:07:09;;;;;;;2.13;2.00;;;;;;;;;;4859446;29;20041;-86
2023/04/24 12:09:43;;;;;;;3.15;2.00;;;;;;;;;;4858147;29;20508;-85
2023/04/24 12:12:11;;;;;;;2.67;2.47;;;;;;;;;;4857079;29;20049;-86
2023/04/24 12:14:43;;;;;;;4.90;2.28;;;;;;;;;;4858225;29;20077;-85
2023/04/24 12:17:10;;;;;;;82.40;24.07;;;;;;;;;;4858973;29;20050;-85
2023/04/24 12:19:37;;;;;;;2.55;1.80;;;;;;;;;;4857193;29;20077;-85
2023/04/24 12:22:06;;;;;;;3.95;2.30;;;;;;;;;;4858246;29;20436;-85
2023/04/24 12:24:34;;;;;;;2.92;2.60;;;;;;;;;;4858722;29;20066;-86
2023/04/24 12:27:02;;;;;;;5.00;2.55;;;;;;;;;;4858679;29;20056;-86
2023/04/24 12:29:29;;;;;;;3.95;2.78;;;;;;;;;;4857543;29;20473;-86
2023/04/24 12:31:56;;;;;;;3.80;2.83;;;;;;;;;;4856392;29;20050;-85
2023/04/24 12:34:24;;;;;;;2.80;2.60;;;;;;;;;;4857713;29;20634;-85
2023/04/24 12:36:52;;;;;;;1.70;1.60;;;;;;;;;;4858449;29;20080;-85
2023/04/24 12:39:19;;;;;;;2.78;1.65;;;;;;;;;;4858930;29;20041;-85
2023/04/24 12:42:06;;;;;;;10.90;6.57;;;;;;;;;;4859356;29;20099;-86
2023/04/24 12:44:34;;;;;;;1.88;1.77;;;;;;;;;;4859021;29;20412;-86
2023/04/24 12:47:02;;;;;;;2.35;1.50;;;;;;;;;;4858928;29;20144;-86
2023/04/24 12:49:32;;;;;;;2.85;1.63;;;;;;;;;;4858217;29;20045;-87
2023/04/24 12:52:00;;;;;;;3.22;1.83;;;;;;;;;;4858326;29;20054;-84
2023/04/24 12:54:33;;;;;;;1.83;1.73;;;;;;;;;;4858771;29;20041;-85
2023/04/24 12:57:00;;;;;;;2.78;2.10;;;;;;;;;;4858698;29;20110;-84
2023/04/24 12:59:27;;;;;;;4.22;1.80;;;;;;;;;;4866557;29;20109;-85
2023/04/24 13:01:55;;;;;;;3.38;1.50;;;;;;;;;;4858127;29;20463;-85
2023/04/24 13:04:22;;;;;;;1.67;1.33;;;;;;;;;;4858318;29;20049;-85
2023/04/24 13:06:49;;;;;;;2.28;1.70;;;;;;;;;;4859289;29;20125;-86
2023/04/24 13:09:17;;;;;;;1.73;1.60;;;;;;;;;;4865746;29;20087;-85
2023/04/24 13:11:44;;;;;;;1.63;1.52;;;;;;;;;;4861994;29;20113;-85
2023/04/24 13:14:15;;;;;;;2.00;1.90;;;;;;;;;;4864817;29;20058;-84
2023/04/24 13:16:42;;;;;;;1.90;1.80;;;;;;;;;;4879709;29;20068;-84
2023/04/24 13:19:10;;;;;;;1.67;1.58;;;;;;;;;;4858769;29;20055;-86
2023/04/24 13:21:37;;;;;;;2.03;1.80;;;;;;;;;;4864261;29;20045;-85
2023/04/24 13:24:05;;;;;;;2.03;1.92;;;;;;;;;;4860712;29;20053;-85
2023/04/24 13:26:32;;;;;;;2.63;1.65;;;;;;;;;;4874393;29;20045;-86
2023/04/24 13:29:00;;;;;;;3.72;1.60;;;;;;;;;;4862363;29;20044;-84
2023/04/24 13:31:27;;;;;;;8.00;2.47;;;;;;;;;;4863484;29;20504;-87
2023/04/24 13:33:54;;;;;;;1.52;1.35;;;;;;;;;;4873019;29;20050;-85
2023/04/24 13:36:22;;;;;;;1.75;1.20;;;;;;;;;;4881183;29;20049;-84
2023/04/24 13:38:49;;;;;;;73.95;27.85;;;;;;;;;;4880120;29;20049;-84
2023/04/24 13:41:17;;;;;;;1.00;0.95;;;;;;;;;;4868797;29;20116;-84
2023/04/24 13:43:44;;;;;;;1.10;0.80;;;;;;;;;;4870199;29;20057;-86
2023/04/24 13:46:12;;;;;;;1.10;0.80;;;;;;;;;;4860887;29;20065;-86
2023/04/24 13:48:39;;;;;;;3.33;0.90;;;;;;;;;;4861665;29;20049;-86
2023/04/24 13:51:07;;;;;;;4.32;0.90;;;;;;;;;;4856833;29;20083;-85
2023/04/24 13:53:38;;;;;;;1.00;1.00;;;;;;;;;;4855689;29;20046;-86
2023/04/24 13:56:05;;;;;;;2.47;1.10;;;;;;;;;;4858061;29;20053;-85
2023/04/24 13:58:33;;;;;;;1.60;1.00;;;;;;;;;;4857271;29;20053;-86
2023/04/24 14:01:00;;;;;;;0.90;0.90;;;;;;;;;;4857354;29;20042;-86
2023/04/24 14:03:27;;;;;;;2.53;1.10;;;;;;;;;;4856281;29;20504;-85
2023/04/24 14:05:55;;;;;;;2.78;1.73;;;;;;;;;;4857749;29;20090;-86
2023/04/24 14:08:22;;;;;;;1.15;1.08;;;;;;;;;;4855392;29;20121;-88
2023/04/24 14:10:50;;;;;;;1.65;1.05;;;;;;;;;;4857953;29;20054;-86
2023/04/24 14:13:18;;;;;;;1.10;1.00;;;;;;;;;;4857189;29;20118;-87
2023/04/24 14:15:45;;;;;;;3.40;0.82;;;;;;;;;;4865725;29;20061;-87
2023/04/24 14:18:12;;;;;;;4.43;1.13;;;;;;;;;;4856819;29;20085;-85
2023/04/24 14:20:39;;;;;;;1.60;1.00;;;;;;;;;;4857608;29;20060;-86
2023/04/24 14:23:07;;;;;;;1.58;1.48;;;;;;;;;;4856627;29;20046;-86
2023/04/24 14:25:34;;;;;;;2.40;1.00;;;;;;;;;;4858576;29;20782;-86
2023/04/24 14:28:02;;;;;;;2.42;1.50;;;;;;;;;;4869591;29;20054;-84
2023/04/24 14:30:29;;;;;;;2.53;1.50;;;;;;;;;;4857758;29;20536;-86
2023/04/24 14:32:56;;;;;;;2.65;0.93;;;;;;;;;;4856233;29;20097;-86
2023/04/24 14:35:24;;;;;;;1.95;1.85;;;;;;;;;;4854397;29;20093;-86
2023/04/24 14:37:51;;;;;;;7.43;1.70;;;;;;;;;;4858227;29;20057;-86
2023/04/24 14:40:19;;;;;;;6.07;1.50;;;;;;;;;;4853616;29;20049;-87
2023/04/24 14:43:06;;;;;;;2.42;1.40;;;;;;;;;;4856103;29;20320;-86
2023/04/24 14:45:34;;;;;;;2.88;1.40;;;;;;;;;;4858356;29;20045;-86
2023/04/24 14:48:02;;;;;;;1.10;1.10;;;;;;;;;;4864604;29;20131;-86
2023/04/24 14:50:29;;;;;;;1.33;1.10;;;;;;;;;;4859159;29;20080;-87
2023/04/24 14:53:01;;;;;;;1.35;1.25;;;;;;;;;;4854726;29;20050;-87
2023/04/24 14:55:29;;;;;;;0.82;0.82;;;;;;;;;;4857458;29;20580;-85